sensor_id;sensor_type;location;lat;lon;timestamp;temperature;humidity
74940;HTU21D;63505;45.226;37.908;2023-03-14T00:01:58;0.94;73.54
74940;HTU21D;63505;45.226;37.908;2023-03-14T00:04:24;0.94;73.78
74940;HTU21D;63505;45.226;37.908;2023-03-14T00:06:50;0.92;74.07
74940;HTU21D;63505;45.226;37.908;2023-03-14T00:09:16;0.91;74.31
74940;HTU21D;63505;45.226;37.908;2023-03-14T00:11:43;0.92;74.49
74940;HTU21D;63505;45.226;37.908;2023-03-14T00:14:09;0.92;74.67
74940;HTU21D;63505;45.226;37.908;2023-03-14T00:16:34;0.94;74.78
74940;HTU21D;63505;45.226;37.908;2023-03-14T00:19:00;0.95;74.79
74940;HTU21D;63505;45.226;37.908;2023-03-14T00:21:27;0.93;74.78
74940;HTU21D;63505;45.226;37.908;2023-03-14T00:23:53;0.92;74.84
74940;HTU21D;63505;45.226;37.908;2023-03-14T00:26:20;0.91;74.91
74940;HTU21D;63505;45.226;37.908;2023-03-14T00:28:50;0.90;75.10
74940;HTU21D;63505;45.226;37.908;2023-03-14T00:31:16;0.94;75.63
74940;HTU21D;63505;45.226;37.908;2023-03-14T00:33:44;0.96;76.08
74940;HTU21D;63505;45.226;37.908;2023-03-14T00:36:17;1.01;76.37
74940;HTU21D;63505;45.226;37.908;2023-03-14T00:38:45;1.03;76.59
74940;HTU21D;63505;45.226;37.908;2023-03-14T00:41:13;1.02;76.68
74940;HTU21D;63505;45.226;37.908;2023-03-14T00:43:41;0.99;76.70
74940;HTU21D;63505;45.226;37.908;2023-03-14T00:46:07;0.97;76.70
74940;HTU21D;63505;45.226;37.908;2023-03-14T00:48:33;0.94;76.60
74940;HTU21D;63505;45.226;37.908;2023-03-14T00:51:00;0.89;76.52
74940;HTU21D;63505;45.226;37.908;2023-03-14T00:53:27;0.87;76.49
74940;HTU21D;63505;45.226;37.908;2023-03-14T00:55:52;0.82;76.42
74940;HTU21D;63505;45.226;37.908;2023-03-14T00:58:18;0.80;76.37
74940;HTU21D;63505;45.226;37.908;2023-03-14T01:00:45;0.78;76.31
74940;HTU21D;63505;45.226;37.908;2023-03-14T01:03:12;0.77;76.27
74940;HTU21D;63505;45.226;37.908;2023-03-14T01:05:39;0.74;76.25
74940;HTU21D;63505;45.226;37.908;2023-03-14T01:08:06;0.76;76.19
74940;HTU21D;63505;45.226;37.908;2023-03-14T01:10:34;0.74;76.02
74940;HTU21D;63505;45.226;37.908;2023-03-14T01:13:00;0.65;75.95
74940;HTU21D;63505;45.226;37.908;2023-03-14T01:15:28;0.55;76.00
74940;HTU21D;63505;45.226;37.908;2023-03-14T01:17:54;0.50;76.06
74940;HTU21D;63505;45.226;37.908;2023-03-14T01:20:20;0.50;76.05
74940;HTU21D;63505;45.226;37.908;2023-03-14T01:22:46;0.49;76.03
74940;HTU21D;63505;45.226;37.908;2023-03-14T01:25:14;0.47;76.00
74940;HTU21D;63505;45.226;37.908;2023-03-14T01:27:41;0.47;75.95
74940;HTU21D;63505;45.226;37.908;2023-03-14T01:30:08;0.45;75.92
74940;HTU21D;63505;45.226;37.908;2023-03-14T01:32:34;0.45;75.93
74940;HTU21D;63505;45.226;37.908;2023-03-14T01:35:00;0.47;75.91
74940;HTU21D;63505;45.226;37.908;2023-03-14T01:37:26;0.51;75.88
74940;HTU21D;63505;45.226;37.908;2023-03-14T01:39:52;0.54;75.83
74940;HTU21D;63505;45.226;37.908;2023-03-14T01:42:19;0.58;75.83
74940;HTU21D;63505;45.226;37.908;2023-03-14T01:44:57;0.63;75.79
74940;HTU21D;63505;45.226;37.908;2023-03-14T01:47:24;0.65;75.70
74940;HTU21D;63505;45.226;37.908;2023-03-14T01:52:27;0.55;75.60
74940;HTU21D;63505;45.226;37.908;2023-03-14T01:55:05;0.49;75.67
74940;HTU21D;63505;45.226;37.908;2023-03-14T01:57:36;0.45;75.70
74940;HTU21D;63505;45.226;37.908;2023-03-14T02:00:07;0.42;75.73
74940;HTU21D;63505;45.226;37.908;2023-03-14T02:02:48;0.39;75.73
74940;HTU21D;63505;45.226;37.908;2023-03-14T02:05:27;0.34;75.77
74940;HTU21D;63505;45.226;37.908;2023-03-14T02:08:05;0.29;75.81
74940;HTU21D;63505;45.226;37.908;2023-03-14T02:10:45;0.23;75.90
74940;HTU21D;63505;45.226;37.908;2023-03-14T02:13:11;0.20;75.94
74940;HTU21D;63505;45.226;37.908;2023-03-14T02:15:50;0.17;76.02
74940;HTU21D;63505;45.226;37.908;2023-03-14T02:18:40;0.16;76.12
74940;HTU21D;63505;45.226;37.908;2023-03-14T02:21:48;0.15;76.14
74940;HTU21D;63505;45.226;37.908;2023-03-14T02:24:38;0.15;76.19
74940;HTU21D;63505;45.226;37.908;2023-03-14T02:27:13;0.17;76.26
74940;HTU21D;63505;45.226;37.908;2023-03-14T02:29:53;0.20;76.34
74940;HTU21D;63505;45.226;37.908;2023-03-14T02:32:22;0.23;76.39
74940;HTU21D;63505;45.226;37.908;2023-03-14T02:34:55;0.30;76.47
74940;HTU21D;63505;45.226;37.908;2023-03-14T02:37:27;0.35;76.54
74940;HTU21D;63505;45.226;37.908;2023-03-14T02:39:56;0.40;76.60
74940;HTU21D;63505;45.226;37.908;2023-03-14T02:42:22;0.45;76.57
74940;HTU21D;63505;45.226;37.908;2023-03-14T02:45:25;0.49;76.64
74940;HTU21D;63505;45.226;37.908;2023-03-14T02:47:49;0.55;76.79
74940;HTU21D;63505;45.226;37.908;2023-03-14T02:50:21;0.63;77.03
74940;HTU21D;63505;45.226;37.908;2023-03-14T02:52:48;0.72;77.25
74940;HTU21D;63505;45.226;37.908;2023-03-14T02:55:14;0.76;77.32
74940;HTU21D;63505;45.226;37.908;2023-03-14T02:57:44;0.80;77.43
74940;HTU21D;63505;45.226;37.908;2023-03-14T03:00:10;0.87;77.56
74940;HTU21D;63505;45.226;37.908;2023-03-14T03:02:38;0.92;77.73
74940;HTU21D;63505;45.226;37.908;2023-03-14T03:05:04;0.97;77.82
74940;HTU21D;63505;45.226;37.908;2023-03-14T03:07:30;1.01;77.91
74940;HTU21D;63505;45.226;37.908;2023-03-14T03:09:57;1.03;78.07
74940;HTU21D;63505;45.226;37.908;2023-03-14T03:12:22;1.06;78.26
74940;HTU21D;63505;45.226;37.908;2023-03-14T03:14:48;1.07;78.45
74940;HTU21D;63505;45.226;37.908;2023-03-14T03:17:14;1.09;78.70
74940;HTU21D;63505;45.226;37.908;2023-03-14T03:19:40;1.13;78.87
74940;HTU21D;63505;45.226;37.908;2023-03-14T03:22:07;1.17;79.02
74940;HTU21D;63505;45.226;37.908;2023-03-14T03:24:33;1.19;79.08
74940;HTU21D;63505;45.226;37.908;2023-03-14T03:27:01;1.21;79.24
74940;HTU21D;63505;45.226;37.908;2023-03-14T03:29:26;1.23;79.60
74940;HTU21D;63505;45.226;37.908;2023-03-14T03:31:53;1.28;79.83
74940;HTU21D;63505;45.226;37.908;2023-03-14T03:34:19;1.32;80.01
74940;HTU21D;63505;45.226;37.908;2023-03-14T03:36:49;1.34;80.11
74940;HTU21D;63505;45.226;37.908;2023-03-14T03:39:15;1.36;80.20
74940;HTU21D;63505;45.226;37.908;2023-03-14T03:41:41;1.36;80.35
74940;HTU21D;63505;45.226;37.908;2023-03-14T03:44:07;1.37;80.38
74940;HTU21D;63505;45.226;37.908;2023-03-14T03:46:32;1.34;80.42
74940;HTU21D;63505;45.226;37.908;2023-03-14T03:48:59;1.33;80.42
74940;HTU21D;63505;45.226;37.908;2023-03-14T03:51:27;1.36;80.45
74940;HTU21D;63505;45.226;37.908;2023-03-14T03:53:53;1.35;80.46
74940;HTU21D;63505;45.226;37.908;2023-03-14T03:56:26;1.34;80.52
74940;HTU21D;63505;45.226;37.908;2023-03-14T03:58:52;1.34;80.65
74940;HTU21D;63505;45.226;37.908;2023-03-14T04:01:18;1.37;80.84
74940;HTU21D;63505;45.226;37.908;2023-03-14T04:03:50;1.41;80.91
74940;HTU21D;63505;45.226;37.908;2023-03-14T04:06:17;1.47;80.98
74940;HTU21D;63505;45.226;37.908;2023-03-14T04:08:45;1.54;81.00
74940;HTU21D;63505;45.226;37.908;2023-03-14T04:11:24;1.62;80.98
74940;HTU21D;63505;45.226;37.908;2023-03-14T04:14:03;1.67;80.94
74940;HTU21D;63505;45.226;37.908;2023-03-14T04:16:29;1.71;80.85
74940;HTU21D;63505;45.226;37.908;2023-03-14T04:19:03;1.76;80.78
74940;HTU21D;63505;45.226;37.908;2023-03-14T04:21:30;1.75;80.72
74940;HTU21D;63505;45.226;37.908;2023-03-14T04:23:57;1.78;80.76
74940;HTU21D;63505;45.226;37.908;2023-03-14T04:26:26;1.81;80.81
74940;HTU21D;63505;45.226;37.908;2023-03-14T04:28:52;1.85;80.72
74940;HTU21D;63505;45.226;37.908;2023-03-14T04:31:21;1.90;80.74
74940;HTU21D;63505;45.226;37.908;2023-03-14T04:33:48;1.97;80.72
74940;HTU21D;63505;45.226;37.908;2023-03-14T04:36:20;2.07;80.62
74940;HTU21D;63505;45.226;37.908;2023-03-14T04:38:47;2.15;80.52
74940;HTU21D;63505;45.226;37.908;2023-03-14T04:41:17;2.24;80.46
74940;HTU21D;63505;45.226;37.908;2023-03-14T04:43:43;2.34;80.40
74940;HTU21D;63505;45.226;37.908;2023-03-14T04:46:10;2.45;80.37
74940;HTU21D;63505;45.226;37.908;2023-03-14T04:48:38;2.57;80.36
74940;HTU21D;63505;45.226;37.908;2023-03-14T04:51:05;2.64;80.30
74940;HTU21D;63505;45.226;37.908;2023-03-14T04:53:33;2.69;80.31
74940;HTU21D;63505;45.226;37.908;2023-03-14T04:56:03;2.78;80.37
74940;HTU21D;63505;45.226;37.908;2023-03-14T04:58:35;2.89;80.41
74940;HTU21D;63505;45.226;37.908;2023-03-14T05:01:04;3.02;80.40
74940;HTU21D;63505;45.226;37.908;2023-03-14T05:03:36;3.14;80.46
74940;HTU21D;63505;45.226;37.908;2023-03-14T05:06:26;3.28;80.53
74940;HTU21D;63505;45.226;37.908;2023-03-14T05:09:15;3.40;80.54
74940;HTU21D;63505;45.226;37.908;2023-03-14T05:12:00;3.55;80.56
74940;HTU21D;63505;45.226;37.908;2023-03-14T05:14:46;3.70;80.50
74940;HTU21D;63505;45.226;37.908;2023-03-14T05:17:47;3.84;80.30
74940;HTU21D;63505;45.226;37.908;2023-03-14T05:20:35;3.98;80.17
74940;HTU21D;63505;45.226;37.908;2023-03-14T05:23:20;4.09;80.01
74940;HTU21D;63505;45.226;37.908;2023-03-14T05:26:05;4.21;79.91
74940;HTU21D;63505;45.226;37.908;2023-03-14T05:28:38;4.31;79.72
74940;HTU21D;63505;45.226;37.908;2023-03-14T05:31:10;4.29;79.47
74940;HTU21D;63505;45.226;37.908;2023-03-14T05:34:02;4.19;79.38
74940;HTU21D;63505;45.226;37.908;2023-03-14T05:36:28;4.04;79.36
74940;HTU21D;63505;45.226;37.908;2023-03-14T05:39:00;3.95;79.41
74940;HTU21D;63505;45.226;37.908;2023-03-14T05:41:49;3.88;79.40
74940;HTU21D;63505;45.226;37.908;2023-03-14T05:44:41;3.85;79.42
74940;HTU21D;63505;45.226;37.908;2023-03-14T05:47:27;3.90;79.56
74940;HTU21D;63505;45.226;37.908;2023-03-14T05:50:20;4.20;79.43
74940;HTU21D;63505;45.226;37.908;2023-03-14T05:53:12;4.50;79.09
74940;HTU21D;63505;45.226;37.908;2023-03-14T05:55:58;4.75;78.75
74940;HTU21D;63505;45.226;37.908;2023-03-14T05:58:42;4.94;78.29
74940;HTU21D;63505;45.226;37.908;2023-03-14T06:01:31;5.00;78.11
74940;HTU21D;63505;45.226;37.908;2023-03-14T06:04:19;5.01;77.72
74940;HTU21D;63505;45.226;37.908;2023-03-14T06:06:50;4.84;77.61
74940;HTU21D;63505;45.226;37.908;2023-03-14T06:09:16;4.66;77.60
74940;HTU21D;63505;45.226;37.908;2023-03-14T06:11:44;4.53;77.65
74940;HTU21D;63505;45.226;37.908;2023-03-14T06:14:11;4.50;77.74
74940;HTU21D;63505;45.226;37.908;2023-03-14T06:16:41;4.58;77.81
74940;HTU21D;63505;45.226;37.908;2023-03-14T06:19:07;4.59;77.58
74940;HTU21D;63505;45.226;37.908;2023-03-14T06:21:33;4.57;77.53
74940;HTU21D;63505;45.226;37.908;2023-03-14T06:23:59;4.56;77.44
74940;HTU21D;63505;45.226;37.908;2023-03-14T06:26:28;4.57;77.37
74940;HTU21D;63505;45.226;37.908;2023-03-14T06:28:54;4.58;77.34
74940;HTU21D;63505;45.226;37.908;2023-03-14T06:31:20;4.63;77.31
74940;HTU21D;63505;45.226;37.908;2023-03-14T06:33:52;4.68;77.27
74940;HTU21D;63505;45.226;37.908;2023-03-14T06:36:19;4.76;77.21
74940;HTU21D;63505;45.226;37.908;2023-03-14T06:38:46;4.73;77.13
74940;HTU21D;63505;45.226;37.908;2023-03-14T06:41:13;4.71;77.06
74940;HTU21D;63505;45.226;37.908;2023-03-14T06:43:42;4.73;77.11
74940;HTU21D;63505;45.226;37.908;2023-03-14T06:46:08;4.82;77.10
74940;HTU21D;63505;45.226;37.908;2023-03-14T06:48:37;4.95;77.07
74940;HTU21D;63505;45.226;37.908;2023-03-14T06:51:03;5.18;77.04
74940;HTU21D;63505;45.226;37.908;2023-03-14T06:53:29;5.39;76.69
74940;HTU21D;63505;45.226;37.908;2023-03-14T06:55:57;5.46;76.41
74940;HTU21D;63505;45.226;37.908;2023-03-14T06:58:25;5.45;76.27
74940;HTU21D;63505;45.226;37.908;2023-03-14T07:00:52;5.46;76.28
74940;HTU21D;63505;45.226;37.908;2023-03-14T07:03:23;5.43;76.25
74940;HTU21D;63505;45.226;37.908;2023-03-14T07:05:52;5.38;76.32
74940;HTU21D;63505;45.226;37.908;2023-03-14T07:08:18;5.40;76.37
74940;HTU21D;63505;45.226;37.908;2023-03-14T07:10:44;5.39;76.38
74940;HTU21D;63505;45.226;37.908;2023-03-14T07:13:10;5.30;76.16
74940;HTU21D;63505;45.226;37.908;2023-03-14T07:15:47;5.24;76.12
74940;HTU21D;63505;45.226;37.908;2023-03-14T07:18:13;5.24;76.15
74940;HTU21D;63505;45.226;37.908;2023-03-14T07:20:39;5.23;76.12
74940;HTU21D;63505;45.226;37.908;2023-03-14T07:23:07;5.27;76.10
74940;HTU21D;63505;45.226;37.908;2023-03-14T07:25:44;5.32;76.09
74940;HTU21D;63505;45.226;37.908;2023-03-14T07:28:11;5.34;76.02
74940;HTU21D;63505;45.226;37.908;2023-03-14T07:30:39;5.34;75.94
74940;HTU21D;63505;45.226;37.908;2023-03-14T07:33:13;5.34;75.87
74940;HTU21D;63505;45.226;37.908;2023-03-14T07:35:39;5.38;75.92
74940;HTU21D;63505;45.226;37.908;2023-03-14T07:38:05;5.43;75.99
74940;HTU21D;63505;45.226;37.908;2023-03-14T07:40:36;5.53;76.02
74940;HTU21D;63505;45.226;37.908;2023-03-14T07:43:03;5.65;75.92
74940;HTU21D;63505;45.226;37.908;2023-03-14T07:45:55;5.78;75.79
74940;HTU21D;63505;45.226;37.908;2023-03-14T07:48:21;5.95;75.60
74940;HTU21D;63505;45.226;37.908;2023-03-14T07:50:51;6.17;75.55
74940;HTU21D;63505;45.226;37.908;2023-03-14T07:53:18;6.35;75.18
74940;HTU21D;63505;45.226;37.908;2023-03-14T07:55:44;6.50;74.71
74940;HTU21D;63505;45.226;37.908;2023-03-14T07:58:10;6.53;74.25
74940;HTU21D;63505;45.226;37.908;2023-03-14T08:00:35;6.53;73.96
74940;HTU21D;63505;45.226;37.908;2023-03-14T08:03:01;6.57;73.86
74940;HTU21D;63505;45.226;37.908;2023-03-14T08:05:27;6.63;73.74
74940;HTU21D;63505;45.226;37.908;2023-03-14T08:07:53;6.65;73.64
74940;HTU21D;63505;45.226;37.908;2023-03-14T08:10:19;6.66;73.44
74940;HTU21D;63505;45.226;37.908;2023-03-14T08:12:55;6.66;73.36
74940;HTU21D;63505;45.226;37.908;2023-03-14T08:15:23;6.67;73.27
74940;HTU21D;63505;45.226;37.908;2023-03-14T08:17:49;6.67;73.26
74940;HTU21D;63505;45.226;37.908;2023-03-14T08:20:21;6.67;73.15
74940;HTU21D;63505;45.226;37.908;2023-03-14T08:22:48;6.70;73.17
74940;HTU21D;63505;45.226;37.908;2023-03-14T08:25:14;6.74;73.15
74940;HTU21D;63505;45.226;37.908;2023-03-14T08:27:40;6.83;73.22
74940;HTU21D;63505;45.226;37.908;2023-03-14T08:30:11;6.86;73.21
74940;HTU21D;63505;45.226;37.908;2023-03-14T08:32:37;6.87;72.90
74940;HTU21D;63505;45.226;37.908;2023-03-14T08:35:04;6.85;72.64
74940;HTU21D;63505;45.226;37.908;2023-03-14T08:37:32;6.83;72.66
74940;HTU21D;63505;45.226;37.908;2023-03-14T08:39:58;6.88;72.89
74940;HTU21D;63505;45.226;37.908;2023-03-14T08:42:24;6.89;72.90
74940;HTU21D;63505;45.226;37.908;2023-03-14T08:44:51;6.87;72.83
74940;HTU21D;63505;45.226;37.908;2023-03-14T08:47:17;6.90;72.92
74940;HTU21D;63505;45.226;37.908;2023-03-14T08:49:43;6.95;72.99
74940;HTU21D;63505;45.226;37.908;2023-03-14T08:52:09;6.94;72.90
74940;HTU21D;63505;45.226;37.908;2023-03-14T08:54:35;6.91;72.65
74940;HTU21D;63505;45.226;37.908;2023-03-14T08:57:01;6.96;72.69
74940;HTU21D;63505;45.226;37.908;2023-03-14T08:59:27;6.97;72.51
74940;HTU21D;63505;45.226;37.908;2023-03-14T09:01:52;6.99;72.29
74940;HTU21D;63505;45.226;37.908;2023-03-14T09:04:20;6.98;71.80
74940;HTU21D;63505;45.226;37.908;2023-03-14T09:06:46;6.96;71.48
74940;HTU21D;63505;45.226;37.908;2023-03-14T09:09:12;6.96;71.44
74940;HTU21D;63505;45.226;37.908;2023-03-14T09:11:39;6.96;71.42
74940;HTU21D;63505;45.226;37.908;2023-03-14T09:14:05;6.99;71.45
74940;HTU21D;63505;45.226;37.908;2023-03-14T09:16:33;7.03;71.58
74940;HTU21D;63505;45.226;37.908;2023-03-14T09:18:59;7.11;71.65
74940;HTU21D;63505;45.226;37.908;2023-03-14T09:21:26;7.15;71.60
74940;HTU21D;63505;45.226;37.908;2023-03-14T09:23:52;7.18;71.10
74940;HTU21D;63505;45.226;37.908;2023-03-14T09:26:19;7.23;70.90
74940;HTU21D;63505;45.226;37.908;2023-03-14T09:28:45;7.28;70.67
74940;HTU21D;63505;45.226;37.908;2023-03-14T09:31:12;7.32;70.51
74940;HTU21D;63505;45.226;37.908;2023-03-14T09:33:38;7.37;70.64
74940;HTU21D;63505;45.226;37.908;2023-03-14T09:36:05;7.38;70.73
74940;HTU21D;63505;45.226;37.908;2023-03-14T09:38:31;7.34;70.78
74940;HTU21D;63505;45.226;37.908;2023-03-14T09:41:00;7.28;70.68
74940;HTU21D;63505;45.226;37.908;2023-03-14T09:43:30;7.20;70.75
74940;HTU21D;63505;45.226;37.908;2023-03-14T09:45:58;7.18;71.07
74940;HTU21D;63505;45.226;37.908;2023-03-14T09:48:31;7.16;71.26
74940;HTU21D;63505;45.226;37.908;2023-03-14T09:51:01;7.11;70.86
74940;HTU21D;63505;45.226;37.908;2023-03-14T09:53:49;7.09;70.93
74940;HTU21D;63505;45.226;37.908;2023-03-14T09:58:48;7.04;71.11
74940;HTU21D;63505;45.226;37.908;2023-03-14T10:01:19;7.00;71.25
74940;HTU21D;63505;45.226;37.908;2023-03-14T10:03:47;7.00;71.55
74940;HTU21D;63505;45.226;37.908;2023-03-14T10:06:14;6.99;71.70
74940;HTU21D;63505;45.226;37.908;2023-03-14T10:08:44;6.97;71.84
74940;HTU21D;63505;45.226;37.908;2023-03-14T10:11:17;6.95;71.99
74940;HTU21D;63505;45.226;37.908;2023-03-14T10:13:48;6.93;72.13
74940;HTU21D;63505;45.226;37.908;2023-03-14T10:16:15;6.90;72.29
74940;HTU21D;63505;45.226;37.908;2023-03-14T10:18:45;6.88;72.37
74940;HTU21D;63505;45.226;37.908;2023-03-14T10:21:28;6.85;72.51
74940;HTU21D;63505;45.226;37.908;2023-03-14T10:23:54;6.84;72.67
74940;HTU21D;63505;45.226;37.908;2023-03-14T10:26:26;6.83;72.80
74940;HTU21D;63505;45.226;37.908;2023-03-14T10:29:08;6.83;72.96
74940;HTU21D;63505;45.226;37.908;2023-03-14T10:31:59;6.86;73.10
74940;HTU21D;63505;45.226;37.908;2023-03-14T10:34:29;6.90;73.20
74940;HTU21D;63505;45.226;37.908;2023-03-14T10:37:18;6.96;73.32
74940;HTU21D;63505;45.226;37.908;2023-03-14T10:39:48;6.98;73.37
74940;HTU21D;63505;45.226;37.908;2023-03-14T10:42:25;7.02;73.44
74940;HTU21D;63505;45.226;37.908;2023-03-14T10:44:57;7.05;73.34
74940;HTU21D;63505;45.226;37.908;2023-03-14T10:47:24;7.07;73.34
74940;HTU21D;63505;45.226;37.908;2023-03-14T10:49:51;7.07;73.48
74940;HTU21D;63505;45.226;37.908;2023-03-14T10:52:22;7.07;73.69
74940;HTU21D;63505;45.226;37.908;2023-03-14T10:54:54;7.05;73.80
74940;HTU21D;63505;45.226;37.908;2023-03-14T10:57:20;7.05;73.79
74940;HTU21D;63505;45.226;37.908;2023-03-14T10:59:47;7.07;73.76
74940;HTU21D;63505;45.226;37.908;2023-03-14T11:07:55;7.15;73.59
74940;HTU21D;63505;45.226;37.908;2023-03-14T11:10:43;7.19;73.63
74940;HTU21D;63505;45.226;37.908;2023-03-14T11:13:26;7.23;73.64
74940;HTU21D;63505;45.226;37.908;2023-03-14T11:18:59;7.29;73.48
74940;HTU21D;63505;45.226;37.908;2023-03-14T11:27:18;7.37;72.87
74940;HTU21D;63505;45.226;37.908;2023-03-14T11:32:24;7.43;72.68
74940;HTU21D;63505;45.226;37.908;2023-03-14T11:34:52;7.46;72.50
74940;HTU21D;63505;45.226;37.908;2023-03-14T11:37:43;7.50;72.34
74940;HTU21D;63505;45.226;37.908;2023-03-14T11:40:21;7.54;72.32
74940;HTU21D;63505;45.226;37.908;2023-03-14T11:42:59;7.57;72.41
74940;HTU21D;63505;45.226;37.908;2023-03-14T11:45:34;7.64;72.51
74940;HTU21D;63505;45.226;37.908;2023-03-14T11:48:25;7.69;72.45
74940;HTU21D;63505;45.226;37.908;2023-03-14T11:50:54;7.70;72.15
74940;HTU21D;63505;45.226;37.908;2023-03-14T11:56:06;7.79;71.89
74940;HTU21D;63505;45.226;37.908;2023-03-14T11:58:38;7.83;71.77
74940;HTU21D;63505;45.226;37.908;2023-03-14T12:01:10;7.85;71.81
74940;HTU21D;63505;45.226;37.908;2023-03-14T12:06:49;7.92;71.33
74940;HTU21D;63505;45.226;37.908;2023-03-14T12:09:18;7.96;71.34
74940;HTU21D;63505;45.226;37.908;2023-03-14T12:11:52;7.99;71.35
74940;HTU21D;63505;45.226;37.908;2023-03-14T12:14:26;8.01;71.30
74940;HTU21D;63505;45.226;37.908;2023-03-14T12:17:26;8.06;71.40
74940;HTU21D;63505;45.226;37.908;2023-03-14T12:20:15;8.09;71.24
74940;HTU21D;63505;45.226;37.908;2023-03-14T12:25:23;8.11;71.07
74940;HTU21D;63505;45.226;37.908;2023-03-14T12:30:39;8.13;71.10
74940;HTU21D;63505;45.226;37.908;2023-03-14T12:35:47;8.20;71.09
74940;HTU21D;63505;45.226;37.908;2023-03-14T12:43:40;8.20;70.91
74940;HTU21D;63505;45.226;37.908;2023-03-14T12:46:21;8.20;70.77
74940;HTU21D;63505;45.226;37.908;2023-03-14T12:49:03;8.18;70.31
74940;HTU21D;63505;45.226;37.908;2023-03-14T12:51:41;8.20;70.19
74940;HTU21D;63505;45.226;37.908;2023-03-14T12:54:16;8.24;70.17
74940;HTU21D;63505;45.226;37.908;2023-03-14T13:00:11;8.38;69.98
74940;HTU21D;63505;45.226;37.908;2023-03-14T13:02:42;8.43;69.72
74940;HTU21D;63505;45.226;37.908;2023-03-14T13:10:28;8.50;69.26
74940;HTU21D;63505;45.226;37.908;2023-03-14T13:13:02;8.50;69.16
74940;HTU21D;63505;45.226;37.908;2023-03-14T13:15:33;8.56;69.13
74940;HTU21D;63505;45.226;37.908;2023-03-14T13:18:03;8.57;68.91
74940;HTU21D;63505;45.226;37.908;2023-03-14T13:21:02;8.60;68.82
74940;HTU21D;63505;45.226;37.908;2023-03-14T13:23:31;8.63;68.59
74940;HTU21D;63505;45.226;37.908;2023-03-14T13:25:58;8.66;68.62
74940;HTU21D;63505;45.226;37.908;2023-03-14T13:28:26;8.68;68.16
74940;HTU21D;63505;45.226;37.908;2023-03-14T13:31:02;8.73;68.13
74940;HTU21D;63505;45.226;37.908;2023-03-14T13:33:29;8.81;68.32
74940;HTU21D;63505;45.226;37.908;2023-03-14T13:36:02;8.86;68.20
74940;HTU21D;63505;45.226;37.908;2023-03-14T13:38:31;8.91;68.14
74940;HTU21D;63505;45.226;37.908;2023-03-14T13:40:58;8.96;68.22
74940;HTU21D;63505;45.226;37.908;2023-03-14T13:43:41;9.07;68.17
74940;HTU21D;63505;45.226;37.908;2023-03-14T13:46:19;9.16;67.65
74940;HTU21D;63505;45.226;37.908;2023-03-14T13:48:53;9.26;67.75
74940;HTU21D;63505;45.226;37.908;2023-03-14T13:51:21;9.30;67.68
74940;HTU21D;63505;45.226;37.908;2023-03-14T13:53:50;9.33;67.66
74940;HTU21D;63505;45.226;37.908;2023-03-14T13:56:28;9.31;67.36
74940;HTU21D;63505;45.226;37.908;2023-03-14T13:58:54;9.32;67.16
74940;HTU21D;63505;45.226;37.908;2023-03-14T14:01:32;9.33;67.34
74940;HTU21D;63505;45.226;37.908;2023-03-14T14:04:05;9.41;67.69
74940;HTU21D;63505;45.226;37.908;2023-03-14T14:06:35;9.45;67.23
74940;HTU21D;63505;45.226;37.908;2023-03-14T14:09:14;9.38;67.27
74940;HTU21D;63505;45.226;37.908;2023-03-14T14:11:54;9.32;67.46
74940;HTU21D;63505;45.226;37.908;2023-03-14T14:14:30;9.25;67.20
74940;HTU21D;63505;45.226;37.908;2023-03-14T14:16:59;9.23;67.52
74940;HTU21D;63505;45.226;37.908;2023-03-14T14:19:27;9.25;67.55
74940;HTU21D;63505;45.226;37.908;2023-03-14T14:21:57;9.29;67.52
74940;HTU21D;63505;45.226;37.908;2023-03-14T14:24:24;9.33;67.55
74940;HTU21D;63505;45.226;37.908;2023-03-14T14:26:59;9.37;67.64
74940;HTU21D;63505;45.226;37.908;2023-03-14T14:29:32;9.39;67.62
74940;HTU21D;63505;45.226;37.908;2023-03-14T14:32:13;9.42;67.51
74940;HTU21D;63505;45.226;37.908;2023-03-14T14:34:40;9.46;67.66
74940;HTU21D;63505;45.226;37.908;2023-03-14T14:37:19;9.48;67.56
74940;HTU21D;63505;45.226;37.908;2023-03-14T14:39:45;9.48;67.61
74940;HTU21D;63505;45.226;37.908;2023-03-14T14:42:15;9.45;67.62
74940;HTU21D;63505;45.226;37.908;2023-03-14T14:44:49;9.40;67.78
74940;HTU21D;63505;45.226;37.908;2023-03-14T14:47:27;9.38;67.78
74940;HTU21D;63505;45.226;37.908;2023-03-14T14:49:54;9.34;67.92
74940;HTU21D;63505;45.226;37.908;2023-03-14T14:52:30;9.32;68.20
74940;HTU21D;63505;45.226;37.908;2023-03-14T14:55:01;9.27;68.42
74940;HTU21D;63505;45.226;37.908;2023-03-14T14:57:37;9.25;68.71
74940;HTU21D;63505;45.226;37.908;2023-03-14T15:00:08;9.22;68.90
74940;HTU21D;63505;45.226;37.908;2023-03-14T15:02:46;9.19;68.99
74940;HTU21D;63505;45.226;37.908;2023-03-14T15:05:22;9.17;69.15
74940;HTU21D;63505;45.226;37.908;2023-03-14T15:07:49;9.14;69.34
74940;HTU21D;63505;45.226;37.908;2023-03-14T15:10:19;9.09;69.50
74940;HTU21D;63505;45.226;37.908;2023-03-14T15:12:45;9.09;69.65
74940;HTU21D;63505;45.226;37.908;2023-03-14T15:15:13;9.05;69.79
74940;HTU21D;63505;45.226;37.908;2023-03-14T15:17:39;9.01;69.90
74940;HTU21D;63505;45.226;37.908;2023-03-14T15:20:09;8.95;70.00
74940;HTU21D;63505;45.226;37.908;2023-03-14T15:22:36;8.92;70.07
74940;HTU21D;63505;45.226;37.908;2023-03-14T15:25:02;8.88;70.19
74940;HTU21D;63505;45.226;37.908;2023-03-14T15:27:28;8.81;70.34
74940;HTU21D;63505;45.226;37.908;2023-03-14T15:29:55;8.77;70.40
74940;HTU21D;63505;45.226;37.908;2023-03-14T15:32:21;8.73;70.49
74940;HTU21D;63505;45.226;37.908;2023-03-14T15:34:47;8.67;70.64
74940;HTU21D;63505;45.226;37.908;2023-03-14T15:37:15;8.63;70.77
74940;HTU21D;63505;45.226;37.908;2023-03-14T15:39:44;8.58;70.97
74940;HTU21D;63505;45.226;37.908;2023-03-14T15:42:10;8.55;71.19
74940;HTU21D;63505;45.226;37.908;2023-03-14T15:44:37;8.55;71.43
74940;HTU21D;63505;45.226;37.908;2023-03-14T15:47:05;8.53;71.53
74940;HTU21D;63505;45.226;37.908;2023-03-14T15:49:32;8.51;71.67
74940;HTU21D;63505;45.226;37.908;2023-03-14T15:51:58;8.50;71.74
74940;HTU21D;63505;45.226;37.908;2023-03-14T15:54:24;8.50;71.71
74940;HTU21D;63505;45.226;37.908;2023-03-14T15:56:57;8.47;71.67
74940;HTU21D;63505;45.226;37.908;2023-03-14T15:59:24;8.47;71.64
74940;HTU21D;63505;45.226;37.908;2023-03-14T16:01:50;8.43;71.65
74940;HTU21D;63505;45.226;37.908;2023-03-14T16:04:16;8.42;71.71
74940;HTU21D;63505;45.226;37.908;2023-03-14T16:06:43;8.39;71.80
74940;HTU21D;63505;45.226;37.908;2023-03-14T16:09:13;8.36;71.87
74940;HTU21D;63505;45.226;37.908;2023-03-14T16:11:39;8.35;71.96
74940;HTU21D;63505;45.226;37.908;2023-03-14T16:14:05;8.35;72.05
74940;HTU21D;63505;45.226;37.908;2023-03-14T16:16:31;8.33;72.11
74940;HTU21D;63505;45.226;37.908;2023-03-14T16:18:58;8.33;72.18
74940;HTU21D;63505;45.226;37.908;2023-03-14T16:21:23;8.31;72.21
74940;HTU21D;63505;45.226;37.908;2023-03-14T16:23:49;8.31;72.20
74940;HTU21D;63505;45.226;37.908;2023-03-14T16:26:18;8.30;72.20
74940;HTU21D;63505;45.226;37.908;2023-03-14T16:28:45;8.30;72.23